Time;durP1;ratioP1;P1;durP2;ratioP2;P2;SDS_P1;SDS_P2;PMS_P1;PMS_P2;Temp;Humidity;BMP_temperature;BMP_pressure;BME280_temperature;BME280_humidity;BME280_pressure;Samples;Min_cycle;Max_cycle;Signal;HPM_P1;HPM_P2
2024/01/21 00:01:29;;;;;;;12.45;6.30;;;0.10;99.90;;;;;;5028121;28;20432;-64
2024/01/21 00:03:55;;;;;;;14.60;7.03;;;0.20;99.90;;;;;;5044112;28;20408;-64
2024/01/21 00:06:21;;;;;;;11.77;5.63;;;0.10;99.90;;;;;;5044401;28;20056;-64
2024/01/21 00:08:47;;;;;;;14.68;6.35;;;0.20;99.90;;;;;;5074445;28;20098;-64
2024/01/21 00:11:13;;;;;;;19.23;7.00;;;0.60;99.90;;;;;;5050700;28;20041;-64
2024/01/21 00:13:38;;;;;;;14.73;6.40;;;0.10;99.90;;;;;;5045668;28;20059;-64
2024/01/21 00:16:04;;;;;;;15.68;6.95;;;0.10;99.90;;;;;;5044088;28;20045;-64
2024/01/21 00:18:30;;;;;;;14.25;6.72;;;0.10;99.90;;;;;;5044013;28;20866;-64
2024/01/21 00:20:55;;;;;;;13.45;6.78;;;0.10;99.90;;;;;;5044231;28;20053;-64
2024/01/21 00:23:21;;;;;;;14.10;6.43;;;0.20;99.90;;;;;;5044248;28;20067;-64
2024/01/21 00:25:47;;;;;;;13.95;6.80;;;0.20;99.90;;;;;;5041666;28;20056;-64
2024/01/21 00:28:13;;;;;;;13.77;6.60;;;0.20;99.90;;;;;;5089000;28;20468;-64
2024/01/21 00:30:38;;;;;;;15.55;6.63;;;0.20;99.90;;;;;;5059773;28;20075;-64
2024/01/21 00:33:04;;;;;;;15.27;6.20;;;0.20;99.90;;;;;;5061666;28;20612;-64
2024/01/21 00:35:30;;;;;;;13.43;6.28;;;0.10;99.90;;;;;;5060699;28;20033;-64
2024/01/21 00:37:55;;;;;;;13.82;6.47;;;0.20;99.90;;;;;;5057819;28;20048;-64
2024/01/21 00:40:21;;;;;;;12.95;6.45;;;0.20;99.90;;;;;;5060732;28;20090;-63
2024/01/21 00:42:47;;;;;;;14.10;6.80;;;0.10;99.90;;;;;;5060954;28;20520;-64
2024/01/21 00:45:12;;;;;;;14.38;7.40;;;0.10;99.90;;;;;;5054953;28;20080;-64
2024/01/21 00:47:38;;;;;;;13.13;6.25;;;0.10;99.90;;;;;;5061610;28;20490;-64
2024/01/21 00:50:04;;;;;;;14.43;5.97;;;0.10;99.90;;;;;;5060106;28;20595;-64
2024/01/21 00:52:30;;;;;;;13.05;6.10;;;0.10;99.90;;;;;;5055620;28;20425;-64
2024/01/21 00:54:55;;;;;;;14.40;7.20;;;0.10;99.90;;;;;;5060265;28;20051;-64
2024/01/21 00:57:22;;;;;;;14.43;7.28;;;0.10;99.90;;;;;;5059386;28;20886;-64
2024/01/21 00:59:48;;;;;;;13.38;6.50;;;0.10;99.90;;;;;;5060797;28;20139;-64
2024/01/21 01:02:14;;;;;;;14.05;7.13;;;0.10;99.90;;;;;;5059710;28;20052;-64
2024/01/21 01:04:40;;;;;;;14.93;6.82;;;0.20;99.90;;;;;;5057072;28;20079;-64
2024/01/21 01:07:06;;;;;;;15.50;6.68;;;0.00;99.90;;;;;;5058999;28;20052;-64
2024/01/21 01:09:31;;;;;;;15.25;7.80;;;0.00;99.90;;;;;;5058565;28;20145;-64
2024/01/21 01:11:57;;;;;;;14.25;6.97;;;0.10;99.90;;;;;;5062634;28;20044;-64
2024/01/21 01:14:23;;;;;;;14.43;6.90;;;0.30;99.90;;;;;;5059319;28;20050;-64
2024/01/21 01:16:49;;;;;;;14.57;7.00;;;0.10;99.90;;;;;;5060218;28;20591;-64
2024/01/21 01:19:14;;;;;;;19.33;7.65;;;0.10;99.90;;;;;;5062431;28;20477;-64
2024/01/21 01:21:40;;;;;;;16.45;6.95;;;0.20;99.90;;;;;;5062225;28;20568;-64
2024/01/21 01:24:07;;;;;;;12.90;6.88;;;0.10;99.90;;;;;;5062605;28;20073;-64
2024/01/21 01:26:33;;;;;;;13.88;6.15;;;0.10;99.90;;;;;;5060338;28;20382;-64
2024/01/21 01:28:59;;;;;;;13.45;6.55;;;0.10;99.90;;;;;;5045921;28;20063;-64
2024/01/21 01:31:25;;;;;;;13.05;6.97;;;0.10;99.90;;;;;;5059425;28;20036;-64
2024/01/21 01:33:51;;;;;;;14.23;6.43;;;0.10;99.90;;;;;;5062281;28;20120;-64
2024/01/21 01:36:17;;;;;;;15.25;7.38;;;0.20;99.90;;;;;;5060155;28;20806;-64
2024/01/21 01:38:43;;;;;;;14.57;6.38;;;0.20;99.90;;;;;;5060744;28;20048;-64
2024/01/21 01:41:09;;;;;;;15.23;6.85;;;0.20;99.90;;;;;;5060747;28;20139;-64
2024/01/21 01:43:34;;;;;;;13.32;6.15;;;0.20;99.90;;;;;;5044326;28;20032;-64
2024/01/21 01:46:00;;;;;;;12.98;5.85;;;0.20;99.90;;;;;;5060442;28;20072;-64
2024/01/21 01:48:30;;;;;;;14.75;6.78;;;0.20;99.90;;;;;;5060893;28;20064;-64
2024/01/21 01:50:58;;;;;;;12.63;6.53;;;0.20;99.90;;;;;;5061117;28;20758;-64
2024/01/21 01:53:24;;;;;;;12.73;6.03;;;0.20;99.90;;;;;;5060782;28;20063;-65
2024/01/21 01:55:50;;;;;;;12.63;6.13;;;0.30;99.90;;;;;;5061016;28;20413;-64
2024/01/21 01:58:18;;;;;;;13.38;5.78;;;0.30;99.90;;;;;;5039970;28;20405;-64
2024/01/21 02:00:47;;;;;;;11.35;5.28;;;0.70;99.90;;;;;;5074663;28;20505;-63
2024/01/21 02:03:14;;;;;;;10.77;5.25;;;0.30;99.90;;;;;;5060916;28;20072;-64
2024/01/21 02:05:40;;;;;;;11.48;5.35;;;0.30;99.90;;;;;;5042936;28;20036;-64
2024/01/21 02:08:06;;;;;;;9.45;4.80;;;0.40;99.90;;;;;;5058972;28;20100;-63
2024/01/21 02:10:32;;;;;;;11.50;5.15;;;0.40;99.90;;;;;;5061552;28;20048;-64
2024/01/21 02:12:58;;;;;;;11.63;4.90;;;0.50;99.90;;;;;;5044510;28;20102;-64
2024/01/21 02:15:23;;;;;;;10.15;4.95;;;0.50;99.90;;;;;;5074926;28;20406;-64
2024/01/21 02:17:49;;;;;;;9.80;4.55;;;0.50;99.90;;;;;;5064836;28;20040;-64
2024/01/21 02:20:18;;;;;;;10.90;4.60;;;0.70;99.90;;;;;;5048032;28;20040;-64
2024/01/21 02:22:44;;;;;;;10.27;4.28;;;0.70;99.90;;;;;;5065031;28;20048;-64
2024/01/21 02:25:10;;;;;;;11.55;4.47;;;0.50;99.90;;;;;;5060579;28;20406;-64
2024/01/21 02:27:38;;;;;;;10.55;4.55;;;0.50;99.90;;;;;;5064032;28;20068;-64
2024/01/21 02:30:04;;;;;;;12.32;4.55;;;0.50;99.90;;;;;;5064498;28;20048;-64
2024/01/21 02:32:30;;;;;;;10.23;4.82;;;0.50;99.90;;;;;;5096607;28;20052;-64
2024/01/21 02:34:56;;;;;;;11.15;4.82;;;0.50;99.90;;;;;;5063350;28;20083;-64
2024/01/21 02:37:21;;;;;;;9.82;4.65;;;0.50;99.90;;;;;;5047179;28;20826;-65
2024/01/21 02:39:47;;;;;;;11.30;4.53;;;0.50;99.90;;;;;;5064565;28;20044;-64
2024/01/21 02:42:13;;;;;;;10.43;4.55;;;0.50;99.90;;;;;;5063696;28;20032;-64
2024/01/21 02:44:38;;;;;;;11.77;4.78;;;0.50;99.90;;;;;;5063804;28;20070;-64
2024/01/21 02:47:04;;;;;;;11.75;4.53;;;0.50;99.90;;;;;;5063756;28;20454;-64
2024/01/21 02:49:30;;;;;;;10.48;4.40;;;0.50;99.90;;;;;;5064291;28;20044;-65
2024/01/21 02:51:56;;;;;;;10.70;4.47;;;0.50;99.90;;;;;;5065087;28;20094;-65
2024/01/21 02:54:22;;;;;;;9.77;4.35;;;0.50;99.90;;;;;;5063862;28;20118;-65
2024/01/21 02:56:48;;;;;;;10.82;4.50;;;0.70;99.90;;;;;;5060798;28;20048;-65
2024/01/21 02:59:14;;;;;;;8.50;4.70;;;0.60;99.90;;;;;;5062777;28;20090;-64
2024/01/21 03:01:40;;;;;;;10.98;3.97;;;0.60;99.90;;;;;;5066590;28;20074;-64
2024/01/21 03:04:09;;;;;;;8.88;4.15;;;0.60;99.90;;;;;;5063518;28;20048;-64
2024/01/21 03:06:34;;;;;;;10.77;4.60;;;0.60;99.90;;;;;;5060364;28;20582;-64
2024/01/21 03:09:00;;;;;;;11.80;4.28;;;0.60;99.90;;;;;;5065368;28;20048;-64
2024/01/21 03:11:26;;;;;;;8.88;4.18;;;0.60;99.90;;;;;;5063648;28;20044;-64
2024/01/21 03:13:53;;;;;;;8.75;3.95;;;1.60;99.90;;;;;;5048203;28;20048;-64
2024/01/21 03:16:19;;;;;;;8.93;3.88;;;0.60;99.90;;;;;;5062892;28;20045;-64
2024/01/21 03:18:44;;;;;;;10.18;3.60;;;0.60;99.90;;;;;;5063699;28;20040;-64
2024/01/21 03:21:10;;;;;;;9.80;3.90;;;0.60;99.90;;;;;;5047006;28;20161;-63
2024/01/21 03:23:35;;;;;;;9.10;3.83;;;0.60;99.90;;;;;;5064957;28;20059;-64
2024/01/21 03:26:01;;;;;;;10.02;3.60;;;1.00;99.90;;;;;;5062852;28;20044;-64
2024/01/21 03:28:28;;;;;;;7.72;3.50;;;0.70;99.90;;;;;;5062874;28;20071;-64
2024/01/21 03:30:54;;;;;;;8.25;3.72;;;0.70;99.90;;;;;;5063948;28;20095;-64
2024/01/21 03:33:20;;;;;;;9.05;3.42;;;0.70;99.90;;;;;;5063020;28;20098;-64
2024/01/21 03:35:47;;;;;;;8.65;3.75;;;0.70;99.90;;;;;;5062850;28;20173;-64
2024/01/21 03:38:13;;;;;;;9.82;3.65;;;0.70;99.90;;;;;;5062573;28;20538;-63
2024/01/21 03:40:39;;;;;;;8.77;3.42;;;0.70;99.90;;;;;;5062932;28;20044;-64
2024/01/21 03:43:05;;;;;;;8.30;3.22;;;0.70;99.90;;;;;;5062138;28;20052;-64
2024/01/21 03:45:30;;;;;;;7.60;3.20;;;1.10;99.90;;;;;;5063396;28;20142;-64
2024/01/21 03:47:56;;;;;;;7.07;3.30;;;0.70;99.90;;;;;;5060650;28;20048;-64
2024/01/21 03:50:22;;;;;;;7.50;2.88;;;1.20;99.90;;;;;;5061979;28;20052;-67
2024/01/21 03:52:48;;;;;;;7.38;2.50;;;0.60;99.90;;;;;;5091753;28;20489;-64
2024/01/21 03:55:16;;;;;;;6.75;2.80;;;0.60;99.90;;;;;;5047353;28;20056;-64
2024/01/21 03:57:42;;;;;;;7.35;2.63;;;0.60;99.90;;;;;;5075368;28;20110;-63
2024/01/21 04:00:09;;;;;;;7.55;2.65;;;0.60;99.90;;;;;;5062991;28;20091;-64
2024/01/21 04:02:36;;;;;;;8.40;2.88;;;0.60;99.90;;;;;;5062984;28;20037;-64
2024/01/21 04:05:03;;;;;;;6.85;2.45;;;0.60;99.90;;;;;;5064392;28;20045;-64
2024/01/21 04:07:29;;;;;;;7.07;2.85;;;0.70;99.90;;;;;;5064478;28;20033;-64
2024/01/21 04:09:55;;;;;;;6.30;2.75;;;0.60;99.90;;;;;;5046248;28;20477;-65
2024/01/21 04:12:21;;;;;;;7.32;2.65;;;0.70;99.90;;;;;;5062252;28;20052;-64
2024/01/21 04:14:47;;;;;;;6.25;2.35;;;0.60;99.90;;;;;;5064096;28;20060;-64
2024/01/21 04:17:13;;;;;;;7.07;2.45;;;0.60;99.90;;;;;;5063277;28;20079;-64
2024/01/21 04:19:38;;;;;;;6.97;2.83;;;0.60;99.90;;;;;;5094036;28;20067;-64
2024/01/21 04:22:04;;;;;;;6.65;2.55;;;0.60;99.90;;;;;;5061264;28;20044;-64
2024/01/21 04:24:30;;;;;;;6.68;2.92;;;0.70;99.90;;;;;;5064324;28;20044;-65
2024/01/21 04:26:56;;;;;;;6.68;2.72;;;1.20;99.90;;;;;;5062114;28;20048;-64
2024/01/21 04:29:21;;;;;;;6.00;2.42;;;0.70;99.90;;;;;;5062520;28;20102;-64
2024/01/21 04:31:47;;;;;;;5.88;2.53;;;0.70;99.90;;;;;;5062332;28;20036;-65
2024/01/21 04:34:13;;;;;;;6.20;2.42;;;0.70;99.90;;;;;;5064435;28;20044;-64
2024/01/21 04:36:39;;;;;;;5.68;2.38;;;0.80;99.90;;;;;;5044851;28;20044;-64
2024/01/21 04:39:06;;;;;;;6.15;2.22;;;0.80;99.90;;;;;;5061893;28;20450;-64
2024/01/21 04:41:32;;;;;;;7.10;2.45;;;0.80;99.90;;;;;;5091765;28;20513;-64
2024/01/21 04:43:58;;;;;;;5.65;2.40;;;1.30;99.90;;;;;;5060707;28;20041;-64
2024/01/21 04:46:24;;;;;;;8.30;2.80;;;0.90;99.90;;;;;;5063021;28;20048;-64
2024/01/21 04:48:52;;;;;;;5.68;2.30;;;0.90;99.90;;;;;;5063379;28;20063;-64
2024/01/21 04:51:18;;;;;;;7.20;2.47;;;0.90;99.90;;;;;;5045860;28;20086;-64
2024/01/21 04:53:44;;;;;;;6.38;2.65;;;0.90;99.90;;;;;;5061997;28;20033;-64
2024/01/21 04:56:17;;;;;;;5.72;2.15;;;0.90;99.90;;;;;;5062167;28;20036;-64
2024/01/21 04:58:43;;;;;;;7.60;2.47;;;0.90;99.90;;;;;;5059557;28;20040;-64
2024/01/21 05:01:09;;;;;;;5.95;2.28;;;1.20;99.90;;;;;;5061841;28;20397;-63
2024/01/21 05:03:35;;;;;;;6.57;2.40;;;1.00;99.90;;;;;;5061919;28;20043;-64
2024/01/21 05:06:00;;;;;;;6.70;2.55;;;1.00;99.90;;;;;;5061793;28;20490;-64
2024/01/21 05:08:26;;;;;;;6.57;2.50;;;1.00;99.90;;;;;;5061247;28;20048;-64
2024/01/21 05:10:52;;;;;;;5.75;2.30;;;1.00;99.90;;;;;;5061573;28;20044;-64
2024/01/21 05:13:18;;;;;;;5.85;2.03;;;1.00;99.90;;;;;;5062706;28;20051;-63
2024/01/21 05:15:44;;;;;;;5.55;2.40;;;1.00;99.90;;;;;;5064755;28;20108;-64
2024/01/21 05:18:10;;;;;;;7.97;3.45;;;1.00;99.90;;;;;;5060903;28;20044;-64
2024/01/21 05:20:36;;;;;;;7.55;3.00;;;1.00;99.90;;;;;;5094429;28;20055;-64
2024/01/21 05:23:02;;;;;;;7.13;2.88;;;1.30;99.90;;;;;;5061938;28;20463;-64
2024/01/21 05:25:27;;;;;;;6.38;2.75;;;1.00;99.90;;;;;;5061096;28;20086;-65
2024/01/21 05:27:54;;;;;;;8.07;2.30;;;1.00;99.90;;;;;;5060770;28;20045;-65
2024/01/21 05:30:20;;;;;;;6.75;2.58;;;1.00;99.90;;;;;;5060013;28;20133;-65
2024/01/21 05:32:46;;;;;;;6.80;2.47;;;1.00;99.90;;;;;;5061801;28;20074;-64
2024/01/21 05:35:13;;;;;;;6.18;2.85;;;1.00;99.90;;;;;;5060449;28;20130;-63
2024/01/21 05:37:39;;;;;;;6.18;2.42;;;1.00;99.90;;;;;;5060641;28;20039;-66
2024/01/21 05:40:05;;;;;;;6.55;2.50;;;1.10;99.90;;;;;;5062630;28;20401;-66
2024/01/21 05:42:31;;;;;;;6.68;2.42;;;1.00;99.90;;;;;;5060861;28;20037;-64
2024/01/21 05:44:56;;;;;;;7.07;2.80;;;1.10;99.90;;;;;;5043260;28;20044;-64
2024/01/21 05:47:22;;;;;;;8.45;2.78;;;1.10;99.90;;;;;;5061879;28;20051;-64
2024/01/21 05:49:48;;;;;;;8.05;2.58;;;1.30;99.90;;;;;;5063501;28;20048;-64
2024/01/21 05:52:13;;;;;;;7.22;2.75;;;1.10;99.90;;;;;;5065904;28;20041;-64
2024/01/21 05:54:39;;;;;;;5.00;2.00;;;1.10;99.90;;;;;;5065934;28;20086;-65
2024/01/21 05:57:05;;;;;;;6.93;2.72;;;1.10;99.90;;;;;;5066562;28;20102;-64
2024/01/21 05:59:32;;;;;;;7.47;3.28;;;1.10;99.90;;;;;;5065846;28;20048;-64
2024/01/21 06:01:58;;;;;;;7.65;3.30;;;1.10;99.90;;;;;;5065644;28;20032;-65
2024/01/21 06:04:24;;;;;;;7.63;2.75;;;1.10;99.90;;;;;;5066007;28;20122;-65
2024/01/21 06:06:50;;;;;;;7.55;2.80;;;1.10;99.90;;;;;;5065771;28;20038;-64
2024/01/21 06:09:16;;;;;;;7.93;2.50;;;1.00;99.90;;;;;;5064745;28;20131;-65
2024/01/21 06:11:45;;;;;;;7.30;2.85;;;1.10;99.90;;;;;;5066673;28;20158;-64
2024/01/21 06:14:11;;;;;;;8.15;3.28;;;1.00;99.90;;;;;;5064880;28;20059;-64
2024/01/21 06:16:37;;;;;;;6.88;2.55;;;1.00;99.90;;;;;;5048094;28;20794;-64
2024/01/21 06:19:03;;;;;;;9.95;2.90;;;1.10;99.90;;;;;;5065019;28;20758;-64
2024/01/21 06:21:29;;;;;;;7.25;2.97;;;1.10;99.90;;;;;;5066336;28;20072;-64
2024/01/21 06:23:56;;;;;;;6.85;2.80;;;1.40;99.90;;;;;;5048392;28;20137;-64
2024/01/21 06:26:22;;;;;;;7.75;3.13;;;1.00;99.90;;;;;;5065700;28;21342;-64
2024/01/21 06:28:51;;;;;;;9.40;2.90;;;1.00;99.90;;;;;;5065268;28;20120;-64
2024/01/21 06:31:18;;;;;;;6.28;2.65;;;1.00;99.90;;;;;;5064771;28;20040;-64
2024/01/21 06:33:44;;;;;;;8.23;3.05;;;1.00;99.90;;;;;;5063686;28;20052;-64
2024/01/21 06:36:10;;;;;;;7.30;2.70;;;1.20;99.90;;;;;;5047224;28;20046;-64
2024/01/21 06:38:38;;;;;;;9.27;3.08;;;1.00;99.90;;;;;;5064513;28;20048;-64
2024/01/21 06:41:03;;;;;;;8.00;3.22;;;1.00;99.90;;;;;;5064599;28;20063;-64
2024/01/21 06:43:29;;;;;;;7.25;3.53;;;1.00;99.90;;;;;;5064230;28;20040;-64
2024/01/21 06:45:55;;;;;;;9.35;4.00;;;1.00;99.90;;;;;;5064904;28;20287;-64
2024/01/21 06:48:21;;;;;;;7.97;3.50;;;1.40;99.90;;;;;;5066863;28;20053;-63
2024/01/21 06:50:52;;;;;;;8.05;3.63;;;1.00;99.90;;;;;;5065684;28;20119;-64
2024/01/21 06:53:18;;;;;;;8.52;3.80;;;1.00;99.90;;;;;;5063863;28;20425;-64
2024/01/21 06:55:44;;;;;;;8.30;3.47;;;2.10;99.90;;;;;;5066674;28;20043;-63
2024/01/21 06:58:10;;;;;;;7.60;3.25;;;1.00;99.90;;;;;;5063699;28;20397;-63
2024/01/21 07:00:35;;;;;;;7.82;3.45;;;0.90;99.90;;;;;;5064133;28;20494;-64
2024/01/21 07:03:01;;;;;;;7.80;3.55;;;0.90;99.90;;;;;;5045775;28;20052;-64
2024/01/21 07:05:27;;;;;;;8.95;3.67;;;0.90;99.90;;;;;;5063461;28;20052;-63
2024/01/21 07:07:53;;;;;;;8.75;3.15;;;1.80;99.90;;;;;;5063346;28;20182;-63
2024/01/21 07:10:18;;;;;;;8.82;3.50;;;0.90;99.90;;;;;;5062887;28;20735;-63
2024/01/21 07:12:44;;;;;;;8.38;3.63;;;0.90;99.90;;;;;;5063790;28;20041;-64
2024/01/21 07:15:10;;;;;;;11.20;3.63;;;0.90;99.90;;;;;;5064709;28;20040;-64
2024/01/21 07:17:35;;;;;;;8.23;3.70;;;0.90;99.90;;;;;;5061268;28;20401;-64
2024/01/21 07:20:02;;;;;;;9.90;3.90;;;0.90;99.90;;;;;;5060634;28;20048;-64
2024/01/21 07:22:28;;;;;;;8.85;3.42;;;0.90;99.90;;;;;;5063251;28;20044;-64
2024/01/21 07:24:54;;;;;;;9.18;3.83;;;0.90;99.90;;;;;;5064065;28;20090;-64
2024/01/21 07:27:21;;;;;;;9.15;3.75;;;1.20;99.90;;;;;;5064912;28;20041;-64
2024/01/21 07:29:47;;;;;;;8.98;3.70;;;0.90;99.90;;;;;;5059102;28;20128;-63
2024/01/21 07:32:12;;;;;;;8.95;3.78;;;0.90;99.90;;;;;;5063725;28;20865;-64
2024/01/21 07:34:38;;;;;;;7.85;4.00;;;0.90;99.90;;;;;;5064521;28;20036;-64
2024/01/21 07:37:04;;;;;;;8.95;3.47;;;1.00;99.90;;;;;;5063454;28;20440;-64
2024/01/21 07:39:29;;;;;;;8.65;4.05;;;1.00;99.90;;;;;;5062180;28;20054;-64
2024/01/21 07:41:55;;;;;;;11.00;4.13;;;1.20;99.90;;;;;;5063816;28;20041;-64
2024/01/21 07:44:21;;;;;;;8.40;3.80;;;1.00;99.90;;;;;;5060117;28;20843;-64
2024/01/21 07:46:48;;;;;;;8.50;3.90;;;1.00;99.90;;;;;;5060187;28;20043;-64
2024/01/21 07:49:14;;;;;;;11.27;4.18;;;1.00;99.90;;;;;;5058398;28;20441;-64
2024/01/21 07:51:39;;;;;;;10.27;4.32;;;1.40;99.90;;;;;;5059675;28;20045;-64
2024/01/21 07:54:05;;;;;;;9.98;4.13;;;1.00;99.90;;;;;;5055563;28;20113;-64
2024/01/21 07:56:31;;;;;;;8.98;3.95;;;1.00;99.90;;;;;;5058749;28;20041;-64
2024/01/21 07:58:56;;;;;;;9.38;3.97;;;1.00;99.90;;;;;;5060537;28;20135;-65
2024/01/21 08:01:24;;;;;;;12.50;4.43;;;1.30;99.90;;;;;;5059868;28;20037;-66
2024/01/21 08:03:49;;;;;;;10.50;4.50;;;1.00;99.90;;;;;;5062208;28;20056;-65
2024/01/21 08:06:15;;;;;;;8.38;3.85;;;1.00;99.90;;;;;;5063145;28;20037;-65
2024/01/21 08:08:41;;;;;;;10.80;4.13;;;1.00;99.90;;;;;;5061859;28;20113;-65
2024/01/21 08:11:07;;;;;;;11.10;5.07;;;1.10;99.90;;;;;;5063804;28;20178;-65
2024/01/21 08:13:33;;;;;;;10.13;4.50;;;1.00;99.90;;;;;;5061736;28;20564;-66
2024/01/21 08:15:59;;;;;;;9.23;4.20;;;1.10;99.90;;;;;;5045526;28;20138;-65
2024/01/21 08:18:24;;;;;;;9.98;3.97;;;1.10;99.90;;;;;;5045234;28;20127;-65
2024/01/21 08:20:51;;;;;;;10.27;4.25;;;1.70;99.90;;;;;;5063504;28;20052;-65
2024/01/21 08:23:17;;;;;;;10.65;4.20;;;1.10;99.90;;;;;;5062116;28;20048;-65
2024/01/21 08:25:43;;;;;;;10.50;4.65;;;1.10;99.90;;;;;;5059833;28;20052;-66
2024/01/21 08:28:09;;;;;;;12.95;4.18;;;1.20;99.90;;;;;;5032217;28;20154;-66
2024/01/21 08:30:34;;;;;;;11.15;4.55;;;1.20;99.90;;;;;;5044013;28;20159;-64
2024/01/21 08:33:00;;;;;;;11.85;4.82;;;1.20;99.90;;;;;;5021139;28;20457;-64
2024/01/21 08:35:26;;;;;;;12.45;3.97;;;1.20;99.90;;;;;;5042062;28;20040;-65
2024/01/21 08:37:52;;;;;;;11.48;4.85;;;1.20;99.90;;;;;;5047616;28;20483;-65
2024/01/21 08:40:18;;;;;;;7.32;3.85;;;1.30;99.90;;;;;;5024980;28;20061;-64
2024/01/21 08:42:44;;;;;;;11.45;4.53;;;1.30;99.90;;;;;;5023334;28;20094;-64
2024/01/21 08:45:10;;;;;;;13.77;4.90;;;1.30;99.90;;;;;;5039923;28;20774;-64
2024/01/21 08:47:36;;;;;;;9.27;3.95;;;1.30;99.90;;;;;;5039006;28;20499;-64
2024/01/21 08:50:02;;;;;;;9.02;4.03;;;1.40;99.90;;;;;;5039553;28;20102;-65
2024/01/21 08:52:32;;;;;;;11.50;4.85;;;1.40;99.90;;;;;;5030113;28;20594;-65
2024/01/21 08:54:57;;;;;;;9.90;4.80;;;1.40;99.90;;;;;;5042137;28;20048;-66
2024/01/21 08:57:23;;;;;;;9.20;4.30;;;1.40;99.90;;;;;;5042154;28;20044;-66
2024/01/21 08:59:51;;;;;;;9.20;4.13;;;1.40;99.90;;;;;;5042426;28;20772;-66
2024/01/21 09:02:18;;;;;;;9.57;5.22;;;1.40;99.90;;;;;;5042940;28;20744;-66
2024/01/21 09:04:45;;;;;;;9.48;4.93;;;1.40;99.90;;;;;;5042428;28;20048;-66
2024/01/21 09:07:11;;;;;;;13.90;4.93;;;1.90;99.90;;;;;;5059117;28;20052;-66
2024/01/21 09:09:37;;;;;;;9.50;4.30;;;1.50;99.90;;;;;;5049517;28;20041;-67
2024/01/21 09:12:02;;;;;;;11.95;4.50;;;1.50;99.90;;;;;;5056535;28;20857;-66
2024/01/21 09:14:28;;;;;;;10.38;5.03;;;1.50;99.90;;;;;;5034672;28;20110;-66
2024/01/21 09:16:54;;;;;;;11.52;5.35;;;1.50;99.90;;;;;;5056114;28;20059;-66
2024/01/21 09:19:20;;;;;;;11.23;4.93;;;1.50;99.90;;;;;;5053872;28;20044;-66
2024/01/21 09:21:45;;;;;;;9.15;4.57;;;1.60;99.90;;;;;;5056548;28;20358;-66
2024/01/21 09:24:14;;;;;;;11.52;4.60;;;2.10;99.90;;;;;;5038647;28;20102;-66
2024/01/21 09:26:41;;;;;;;9.23;4.38;;;1.60;99.90;;;;;;5086239;28;20049;-66
2024/01/21 09:29:07;;;;;;;9.25;4.95;;;1.80;99.90;;;;;;5041142;28;20044;-66
2024/01/21 09:31:34;;;;;;;12.93;5.63;;;1.80;99.90;;;;;;5055115;28;20067;-66
2024/01/21 09:34:00;;;;;;;11.38;4.70;;;1.70;99.90;;;;;;5053923;28;20045;-67
2024/01/21 09:36:26;;;;;;;9.05;4.60;;;1.70;99.90;;;;;;5056711;28;20094;-67
2024/01/21 09:38:52;;;;;;;12.20;5.68;;;2.10;99.90;;;;;;5049771;28;20385;-66
2024/01/21 09:41:50;;;;;;;10.75;5.43;;;2.50;99.90;;;;;;5027711;28;20041;-67
2024/01/21 09:44:25;;;;;;;11.48;5.43;;;1.80;99.90;;;;;;5036331;28;20515;-65
2024/01/21 09:46:56;;;;;;;11.02;5.28;;;1.80;99.90;;;;;;5042420;28;20047;-65
2024/01/21 09:49:22;;;;;;;11.77;5.22;;;1.80;99.90;;;;;;5075381;28;20044;-66
2024/01/21 09:51:49;;;;;;;9.93;5.28;;;2.00;99.90;;;;;;5045868;28;20064;-66
2024/01/21 09:54:16;;;;;;;9.57;4.80;;;1.90;99.90;;;;;;5047447;28;20056;-66
2024/01/21 09:56:42;;;;;;;9.57;4.90;;;1.90;99.90;;;;;;5047608;28;20541;-65
2024/01/21 09:59:12;;;;;;;11.98;5.00;;;1.90;99.90;;;;;;5031211;28;20479;-66
2024/01/21 10:01:40;;;;;;;11.48;4.97;;;1.90;99.90;;;;;;5045123;28;20072;-67
2024/01/21 10:04:08;;;;;;;10.27;5.03;;;2.00;99.90;;;;;;5025461;28;20067;-67
2024/01/21 10:06:35;;;;;;;11.23;5.07;;;2.00;99.90;;;;;;5042039;28;20037;-66
2024/01/21 10:09:11;;;;;;;10.77;4.90;;;2.00;99.90;;;;;;5039296;28;21182;-66
2024/01/21 10:11:38;;;;;;;10.73;5.45;;;2.10;99.90;;;;;;5055648;28;20049;-66
2024/01/21 10:14:03;;;;;;;11.55;5.07;;;2.10;99.90;;;;;;5055139;28;20409;-67
2024/01/21 10:16:30;;;;;;;10.35;5.28;;;2.20;99.90;;;;;;5043115;28;20041;-66
2024/01/21 10:18:57;;;;;;;16.02;5.75;;;2.20;99.90;;;;;;5070967;28;20517;-66
2024/01/21 10:21:22;;;;;;;10.73;5.60;;;2.30;99.90;;;;;;5022870;28;20163;-66
2024/01/21 10:23:48;;;;;;;13.55;5.97;;;2.30;99.90;;;;;;5047045;28;20055;-66
2024/01/21 10:26:14;;;;;;;10.75;5.30;;;2.40;99.90;;;;;;5034451;28;20049;-66
2024/01/21 10:28:41;;;;;;;10.60;5.57;;;2.50;99.90;;;;;;5040768;28;20049;-66
2024/01/21 10:31:08;;;;;;;11.68;5.43;;;2.40;99.90;;;;;;5074057;28;20098;-66
2024/01/21 10:33:34;;;;;;;13.05;5.93;;;2.40;99.90;;;;;;5023261;28;20061;-66
2024/01/21 10:36:03;;;;;;;11.52;5.50;;;2.50;99.90;;;;;;5038899;28;20048;-67
2024/01/21 10:38:29;;;;;;;10.70;4.78;;;2.50;99.90;;;;;;5045827;28;20045;-66
2024/01/21 10:40:56;;;;;;;11.07;5.75;;;2.50;99.90;;;;;;5039999;28;20044;-66
2024/01/21 10:43:22;;;;;;;11.95;5.78;;;2.50;99.90;;;;;;5036328;28;20557;-66
2024/01/21 10:45:49;;;;;;;12.55;5.88;;;2.60;99.90;;;;;;5075690;28;20036;-66
2024/01/21 10:48:16;;;;;;;11.70;5.50;;;2.60;99.90;;;;;;5028996;28;20057;-66
2024/01/21 10:50:44;;;;;;;12.15;5.25;;;2.60;99.90;;;;;;5042007;28;20058;-66
2024/01/21 10:53:11;;;;;;;13.73;6.30;;;2.70;99.90;;;;;;5039310;28;20484;-66
2024/01/21 10:55:39;;;;;;;13.07;6.00;;;2.70;99.90;;;;;;5045283;28;20135;-66
2024/01/21 10:58:06;;;;;;;12.02;5.60;;;2.70;99.90;;;;;;5031220;28;20116;-66
2024/01/21 11:00:32;;;;;;;13.60;5.55;;;2.70;99.90;;;;;;5049884;28;20422;-66
2024/01/21 11:03:23;;;;;;;13.60;6.28;;;2.70;99.90;;;;;;5044580;28;20105;-66
2024/01/21 11:05:58;;;;;;;12.00;5.65;;;2.80;99.90;;;;;;5050301;28;20408;-66
2024/01/21 11:08:26;;;;;;;11.57;6.00;;;2.80;99.90;;;;;;5048370;28;20772;-66
2024/01/21 11:11:13;;;;;;;14.38;6.32;;;2.80;99.90;;;;;;5047206;28;20814;-66
2024/01/21 11:13:43;;;;;;;13.18;6.15;;;2.90;99.90;;;;;;5048314;28;20040;-66
2024/01/21 11:16:26;;;;;;;11.88;5.30;;;2.90;99.90;;;;;;5049573;28;20055;-66
2024/01/21 11:18:53;;;;;;;12.73;5.78;;;4.10;99.90;;;;;;5035226;28;20049;-66
2024/01/21 11:21:23;;;;;;;12.65;6.53;;;2.90;99.90;;;;;;5048152;28;20143;-66
2024/01/21 11:24:06;;;;;;;12.85;5.65;;;3.00;99.90;;;;;;5089399;27;20044;-67
2024/01/21 11:26:35;;;;;;;12.27;5.72;;;3.00;99.90;;;;;;5053619;28;20096;-66
2024/01/21 11:29:02;;;;;;;11.93;5.82;;;3.90;99.90;;;;;;5054601;28;20584;-67
2024/01/21 11:31:32;;;;;;;12.75;5.53;;;3.10;99.90;;;;;;5051741;28;20517;-67
2024/01/21 11:34:17;;;;;;;15.18;6.25;;;3.20;99.90;;;;;;5045664;28;20562;-67
2024/01/21 11:36:44;;;;;;;12.55;6.15;;;3.10;99.90;;;;;;5048218;28;20098;-66
2024/01/21 11:39:10;;;;;;;13.25;5.82;;;3.40;99.90;;;;;;5053506;28;20052;-66
2024/01/21 11:41:39;;;;;;;12.55;6.45;;;3.10;99.90;;;;;;5046806;28;20097;-66
2024/01/21 11:44:12;;;;;;;11.38;5.82;;;3.80;99.90;;;;;;5042639;28;20767;-67
2024/01/21 11:46:39;;;;;;;10.68;5.85;;;3.60;99.90;;;;;;5033027;28;20049;-67
2024/01/21 11:49:05;;;;;;;14.02;5.78;;;3.20;99.90;;;;;;5050158;28;20438;-67
2024/01/21 11:51:31;;;;;;;13.40;6.15;;;3.60;99.90;;;;;;5044822;28;20826;-67
2024/01/21 11:53:57;;;;;;;12.65;6.47;;;3.20;99.90;;;;;;5041605;28;20041;-67
2024/01/21 11:56:23;;;;;;;13.38;6.32;;;3.20;99.90;;;;;;5043498;28;21328;-67
2024/01/21 11:58:49;;;;;;;14.38;6.55;;;3.20;99.90;;;;;;5074007;27;20056;-66
2024/01/21 12:01:15;;;;;;;12.48;6.50;;;3.20;99.90;;;;;;5030926;28;20519;-67
2024/01/21 12:03:43;;;;;;;11.57;5.70;;;3.20;99.90;;;;;;5045283;28;20064;-67
2024/01/21 12:06:11;;;;;;;12.23;5.93;;;4.00;99.90;;;;;;5047095;28;20048;-67
2024/01/21 12:08:41;;;;;;;15.07;5.90;;;3.30;99.90;;;;;;5048537;28;20053;-67
2024/01/21 12:11:07;;;;;;;11.98;5.80;;;3.30;99.90;;;;;;5046575;28;20750;-67
2024/01/21 12:13:33;;;;;;;14.93;6.25;;;3.30;99.90;;;;;;5048263;28;20055;-67
2024/01/21 12:15:58;;;;;;;14.45;6.55;;;3.30;99.90;;;;;;5049353;28;20051;-67
2024/01/21 12:18:24;;;;;;;16.13;7.22;;;3.30;99.90;;;;;;5067470;28;20048;-67
2024/01/21 12:20:50;;;;;;;15.85;6.85;;;3.30;99.90;;;;;;5049736;28;20036;-67
2024/01/21 12:23:23;;;;;;;15.50;6.65;;;3.30;99.90;;;;;;5044664;28;20356;-66
2024/01/21 12:25:49;;;;;;;16.60;6.72;;;3.80;99.90;;;;;;5062338;28;20048;-67
2024/01/21 12:28:15;;;;;;;16.45;7.28;;;4.10;99.90;;;;;;5047666;28;20196;-67
2024/01/21 12:30:41;;;;;;;13.52;6.88;;;3.40;99.90;;;;;;5047323;28;20071;-67
2024/01/21 12:33:07;;;;;;;14.73;6.60;;;3.50;99.90;;;;;;5040328;28;20040;-67
2024/01/21 12:35:32;;;;;;;16.40;7.32;;;3.40;99.90;;;;;;5031004;28;20147;-66
2024/01/21 12:37:59;;;;;;;12.52;6.78;;;3.70;99.90;;;;;;5037211;28;20164;-65
2024/01/21 12:40:26;;;;;;;15.50;7.40;;;3.40;99.90;;;;;;5069586;28;20052;-65
2024/01/21 12:42:52;;;;;;;13.55;7.22;;;3.50;99.90;;;;;;5032975;28;20053;-65
2024/01/21 12:45:18;;;;;;;16.17;7.47;;;3.50;99.90;;;;;;5016733;28;20328;-65
2024/01/21 12:47:44;;;;;;;13.70;7.05;;;3.50;99.90;;;;;;5048595;28;20099;-66